.
WxDataArchive / Data Records for 2014-03-18
2014-03-17 March 2014 2014-03-19

Data Records for Tuesday, 18 March 2014

Time	Temp	Chill	HIndex	Humid	Dewpt	 Wind 	HiWind	WindDir	Rain 	Barom
-----	----	-----	------	-----	-----	------	------	-------	-----	-----
00:00	25.7	25.7	25.7	81	20.7	2	4	90	0.00	29.953 
00:05	25.7	25.7	25.7	81	20.7	2	6	90	0.00	29.953 
00:10	25.6	25.6	25.6	82	20.9	2	5	90	0.00	29.953 
00:15	25.6	25.6	25.6	82	20.9	2	4	90	0.00	29.940 
00:20	25.4	25.4	25.4	82	20.7	2	5	90	0.00	29.940 
00:25	25.4	25.4	25.4	83	21.0	1	4	90	0.00	29.940 
00:30	25.4	25.4	25.4	83	21.0	2	5	90	0.00	29.939 
00:35	25.4	25.4	25.4	83	21.0	1	3	90	0.00	29.939 
00:40	25.4	25.4	25.4	83	21.0	1	5	90	0.00	29.939 
00:45	25.3	25.3	25.3	83	20.9	1	2	90	0.00	29.937 
00:50	25.3	25.3	25.3	84	21.2	1	3	90	0.00	29.937 
00:55	25.1	25.1	25.1	84	21.0	1	3	90	0.00	29.937 
01:00	25.1	25.1	25.1	84	21.0	1	3	90	0.00	29.929 
01:05	25.1	25.1	25.1	84	21.0	1	3	90	0.00	29.929 
01:10	25.1	25.1	25.1	84	21.0	2	4	90	0.00	29.929 
01:15	25.1	25.1	25.1	84	21.0	2	5	90	0.00	29.927 
01:20	25.1	25.1	25.1	84	21.0	2	4	90	0.00	29.927 
01:25	25.1	25.1	25.1	84	21.0	2	4	90	0.00	29.927 
01:30	25.3	25.3	25.3	84	21.2	2	4	90	0.00	29.923 
01:35	25.3	25.3	25.3	84	21.2	3	5	90	0.00	29.923 
01:40	25.3	25.3	25.3	84	21.2	2	5	90	0.00	29.923 
01:45	25.3	25.3	25.3	84	21.2	2	5	90	0.00	29.923 
01:50	25.3	25.3	25.3	84	21.2	2	5	90	0.00	29.923 
01:55	25.3	25.3	25.3	84	21.2	2	5	68	0.00	29.923 
02:00	25.1	25.1	25.1	84	21.0	1	4	90	0.00	29.922 
02:05	25.1	25.1	25.1	84	21.0	2	3	90	0.00	29.922 
02:10	25.1	25.1	25.1	84	21.0	1	4	90	0.00	29.922 
02:15	25.0	25.0	25.0	84	20.9	1	2	90	0.00	29.923 
02:20	25.0	25.0	25.0	84	20.9	1	4	90	0.00	29.923 
02:25	25.0	25.0	25.0	84	20.9	0	2	90	0.00	29.923 
02:30	24.8	24.8	24.8	84	20.7	0	2	90	0.00	29.929 
02:35	24.8	24.8	24.8	85	20.9	1	2	90	0.00	29.929 
02:40	24.8	24.8	24.8	85	20.9	1	3	90	0.00	29.929 
02:45	24.7	24.7	24.7	85	20.8	0	2	90	0.00	29.934 
02:50	24.7	24.7	24.7	85	20.8	0	1	90	0.00	29.934 
02:55	24.7	24.7	24.7	85	20.8	0	1	90	0.00	29.934 
03:00	24.5	24.5	24.5	85	20.6	0	1	90	0.00	29.936 
03:05	24.4	24.4	24.4	85	20.6	0	1	90	0.00	29.936 
03:10	24.4	24.4	24.4	85	20.6	0	0	---	0.00	29.936 
03:15	24.2	24.2	24.2	85	20.4	0	0	---	0.00	29.942 
03:20	24.1	24.1	24.1	85	20.3	0	0	---	0.00	29.942 
03:25	23.9	23.9	23.9	85	20.1	0	0	---	0.00	29.942 
03:30	23.8	23.8	23.8	85	20.0	0	1	90	0.00	29.943 
03:35	23.6	23.6	23.6	86	20.0	0	1	90	0.00	29.943 
03:40	23.6	23.6	23.6	86	20.0	0	1	90	0.00	29.943 
03:45	23.5	23.5	23.5	86	19.9	0	1	90	0.00	29.942 
03:50	23.5	23.5	23.5	86	19.9	0	1	90	0.00	29.942 
03:55	23.3	23.3	23.3	86	19.7	0	1	90	0.00	29.942 
04:00	23.3	23.3	23.3	86	19.7	0	1	90	0.00	29.941 
04:05	23.3	23.3	23.3	86	19.7	1	3	90	0.00	29.941 
04:10	23.3	23.3	23.3	87	20.0	1	4	90	0.00	29.941 
04:15	23.5	23.5	23.5	87	20.2	1	4	90	0.00	29.938 
04:20	23.3	23.3	23.3	87	20.0	1	2	90	0.00	29.938 
04:25	23.3	23.3	23.3	87	20.0	1	2	90	0.00	29.938 
04:30	23.2	23.2	23.2	87	19.9	0	2	90	0.00	29.940 
04:35	23.2	23.2	23.2	87	19.9	0	3	90	0.00	29.940 
04:40	23.2	23.2	23.2	87	19.9	0	1	90	0.00	29.940 
04:45	23.2	23.2	23.2	87	19.9	0	1	90	0.00	29.941 
04:50	23.0	23.0	23.0	87	19.7	0	2	90	0.00	29.941 
04:55	23.0	23.0	23.0	87	19.7	1	2	90	0.00	29.941 
05:00	23.0	23.0	23.0	87	19.7	0	2	90	0.00	29.950 
05:05	22.9	22.9	22.9	87	19.6	0	3	90	0.00	29.950 
05:10	22.9	22.9	22.9	87	19.6	1	4	90	0.00	29.950 
05:15	23.0	23.0	23.0	87	19.7	1	3	90	0.00	29.953 
05:20	22.9	22.9	22.9	87	19.6	1	4	90	0.00	29.953 
05:25	22.9	22.9	22.9	88	19.9	1	3	90	0.00	29.953 
05:30	22.9	22.9	22.9	88	19.9	0	3	90	0.00	29.953 
05:35	22.9	22.9	22.9	88	19.9	1	2	90	0.00	29.953 
05:40	22.9	22.9	22.9	88	19.9	1	2	90	0.00	29.953 
05:45	22.9	22.9	22.9	88	19.9	1	3	90	0.00	29.957 
05:50	22.9	22.9	22.9	88	19.9	1	3	90	0.00	29.957 
05:55	22.7	22.7	22.7	88	19.7	1	2	90	0.00	29.957 
06:00	22.7	22.7	22.7	88	19.7	0	2	90	0.00	29.960 
06:05	22.7	22.7	22.7	88	19.7	1	2	90	0.00	29.960 
06:10	22.7	22.7	22.7	88	19.7	1	2	90	0.00	29.960 
06:15	22.7	22.7	22.7	88	19.7	1	4	90	0.00	29.958 
06:20	22.7	22.7	22.7	88	19.7	1	3	90	0.00	29.958 
06:25	22.7	22.7	22.7	88	19.7	1	3	90	0.00	29.958 
06:30	22.7	22.7	22.7	88	19.7	1	2	90	0.00	29.963 
06:35	22.7	22.7	22.7	88	19.7	1	3	90	0.00	29.963 
06:40	22.7	22.7	22.7	88	19.7	1	3	90	0.00	29.963 
06:45	22.7	22.7	22.7	89	20.0	1	3	90	0.00	29.963 
06:50	22.7	22.7	22.7	89	20.0	1	3	90	0.00	29.963 
06:55	22.7	22.7	22.7	89	20.0	0	2	90	0.00	29.963 
07:00	22.7	22.7	22.7	89	20.0	1	2	90	0.00	29.970 
07:05	22.7	22.7	22.7	89	20.0	1	2	90	0.00	29.970 
07:10	22.7	22.7	22.7	89	20.0	1	3	90	0.00	29.970 
07:15	22.7	22.7	22.7	89	20.0	1	2	90	0.00	29.972 
07:20	22.7	22.7	22.7	89	20.0	0	2	90	0.00	29.972 
07:25	22.7	22.7	22.7	89	20.0	0	1	90	0.00	29.972 
07:30	22.7	22.7	22.7	89	20.0	0	1	90	0.00	29.974 
07:35	22.7	22.7	22.7	89	20.0	1	2	90	0.00	29.974 
07:40	22.7	22.7	22.7	89	20.0	1	2	90	0.00	29.974 
07:45	22.7	22.7	22.7	89	20.0	0	2	90	0.00	29.971 
07:50	22.7	22.7	22.7	89	20.0	1	2	90	0.00	29.971 
07:55	22.7	22.7	22.7	89	20.0	1	2	90	0.00	29.971 
08:00	22.7	22.7	22.7	89	20.0	1	2	90	0.00	29.971 
08:05	22.7	22.7	22.7	89	20.0	1	3	90	0.00	29.971 
08:10	22.9	22.9	22.9	89	20.2	1	2	90	0.00	29.971 
08:15	22.9	22.9	22.9	89	20.2	0	2	90	0.00	29.973 
08:20	23.0	23.0	23.0	89	20.3	1	3	90	0.00	29.973 
08:25	23.3	23.3	23.3	89	20.5	1	5	90	0.00	29.973 
08:30	23.6	23.6	23.6	89	20.8	1	3	90	0.00	29.972 
08:35	24.1	24.1	24.1	89	21.3	1	2	90	0.00	29.972 
08:40	24.4	24.4	24.4	89	21.6	1	3	90	0.00	29.972 
08:45	24.7	24.7	24.7	89	21.9	1	3	90	0.00	29.974 
08:50	25.0	25.0	25.0	88	22.0	2	4	90	0.00	29.974 
08:55	25.3	25.3	25.3	88	22.3	3	5	90	0.00	29.974 
09:00	25.6	25.6	25.6	87	22.3	2	4	90	0.00	29.972 
09:05	25.8	25.8	25.8	87	22.5	2	4	90	0.00	29.972 
09:10	26.0	26.0	26.0	87	22.7	2	4	90	0.00	29.972 
09:15	26.3	26.3	26.3	87	23.0	2	5	90	0.00	29.979 
09:20	26.6	26.6	26.6	86	23.0	3	5	90	0.00	29.979 
09:25	27.2	27.2	27.2	86	23.6	2	5	90	0.00	29.979 
09:30	27.6	27.6	27.6	85	23.7	3	5	90	0.00	29.974 
09:35	28.1	28.1	28.1	84	23.9	2	5	90	0.00	29.974 
09:40	28.4	28.4	28.4	84	24.2	2	4	90	0.00	29.974 
09:45	28.7	28.7	28.7	84	24.5	2	4	90	0.00	29.969 
09:50	29.0	29.0	29.0	83	24.5	3	6	90	0.00	29.969 
09:55	29.3	29.3	29.3	83	24.8	3	6	90	0.00	29.969 
10:00	29.8	29.8	29.8	83	25.3	2	4	112	0.00	29.973 
10:05	30.3	30.3	30.3	81	25.2	2	5	90	0.00	29.973 
10:10	30.9	30.9	30.9	81	25.8	2	5	90	0.00	29.973 
10:15	31.3	31.3	31.3	81	26.2	2	6	90	0.00	29.970 
10:20	31.9	31.9	31.9	79	26.1	2	4	90	0.00	29.970 
10:25	32.4	32.4	32.4	78	26.3	2	4	90	0.00	29.970 
10:30	32.8	32.8	32.8	78	26.7	2	4	90	0.00	29.973 
10:35	33.4	33.4	33.4	77	27.0	2	4	90	0.00	29.973 
10:40	33.8	33.8	33.8	76	27.1	2	4	90	0.00	29.973 
10:45	34.3	34.3	34.3	76	27.5	3	6	90	0.00	29.971 
10:50	34.6	34.6	34.6	76	27.8	3	5	90	0.00	29.971 
10:55	34.7	34.7	34.7	75	27.6	3	5	90	0.00	29.971 
11:00	35.0	35.0	35.0	76	28.2	2	4	90	0.00	29.974 
11:05	35.6	35.6	35.6	75	28.5	2	6	90	0.00	29.974 
11:10	36.2	36.2	36.2	74	28.7	2	5	112	0.00	29.974 
11:15	36.3	36.3	36.3	74	28.8	3	5	90	0.00	29.974 
11:20	36.6	36.6	36.6	74	29.1	2	4	90	0.00	29.974 
11:25	36.9	36.9	36.9	74	29.4	2	5	90	0.00	29.974 
11:30	36.9	36.9	36.9	74	29.4	3	5	90	0.00	29.977 
11:35	37.0	37.0	37.0	74	29.5	3	7	90	0.00	29.977 
11:40	37.3	37.3	37.3	74	29.8	3	6	112	0.00	29.977 
11:45	37.6	37.6	37.6	74	30.1	2	5	112	0.00	29.979 
11:50	37.9	37.9	37.9	75	30.7	2	4	90	0.00	29.979 
11:55	38.5	38.5	38.5	74	30.9	1	7	90	0.00	29.979 
12:00	38.9	38.9	38.9	73	31.0	2	5	90	0.00	29.975 
12:05	39.3	39.3	39.3	73	31.4	3	5	90	0.00	29.975 
12:10	39.5	39.5	39.5	73	31.6	3	6	90	0.00	29.975 
12:15	39.6	39.6	39.6	73	31.7	2	6	90	0.00	29.973 
12:20	39.9	39.9	39.9	73	32.0	2	5	112	0.00	29.973 
12:25	40.2	40.2	40.2	72	31.9	3	6	112	0.00	29.973 
12:30	40.5	37.9	40.5	71	31.8	4	9	112	0.00	29.973 
12:35	40.8	40.8	40.8	72	32.5	3	6	112	0.00	29.973 
12:40	41.2	41.2	41.2	71	32.5	2	7	90	0.00	29.973 
12:45	41.8	41.8	41.8	70	32.7	2	6	90	0.00	29.974 
12:50	42.2	39.9	42.2	69	32.8	4	10	90	0.00	29.974 
12:55	42.3	42.3	42.3	70	33.2	3	6	90	0.00	29.974 
13:00	42.3	39.2	42.3	70	33.2	5	10	90	0.00	29.974 
13:05	42.5	40.2	42.5	70	33.4	4	10	90	0.00	29.974 
13:10	43.2	43.2	43.2	70	34.1	2	7	112	0.00	29.974 
13:15	43.3	43.3	43.3	69	33.8	3	9	112	0.00	29.978 
13:20	43.3	43.3	43.3	69	33.8	3	8	90	0.00	29.978 
13:25	43.5	43.5	43.5	70	34.4	3	7	90	0.00	29.978 
13:30	44.3	44.3	44.3	68	34.4	3	5	112	0.00	29.980 
13:35	45.1	45.1	45.1	65	34.0	3	6	90	0.00	29.980 
13:40	45.7	45.7	45.7	62	33.4	3	7	112	0.00	29.980 
13:45	45.7	45.7	45.7	62	33.4	3	6	90	0.00	29.982 
13:50	45.5	45.5	45.5	63	33.6	2	7	90	0.00	29.982 
13:55	45.2	45.2	45.2	64	33.8	3	5	112	0.00	29.982 
14:00	45.2	45.2	45.2	65	34.1	3	6	112	0.00	29.984 
14:05	45.5	45.5	45.5	63	33.6	2	7	112	0.00	29.984 
14:10	45.5	45.5	45.5	63	33.6	2	5	112	0.00	29.984 
14:15	45.2	45.2	45.2	64	33.8	3	5	112	0.00	29.975 
14:20	45.1	45.1	45.1	64	33.7	1	5	112	0.00	29.975 
14:25	44.6	42.6	44.6	65	33.6	4	11	90	0.00	29.975 
14:30	44.8	44.8	44.8	65	33.8	2	6	90	0.00	29.961 
14:35	45.1	45.1	45.1	64	33.7	2	6	112	0.00	29.961 
14:40	45.4	45.4	45.4	65	34.3	2	7	112	0.00	29.961 
14:45	45.5	45.5	45.5	65	34.4	3	10	90	0.00	29.954 
14:50	45.7	45.7	45.7	63	33.8	3	6	90	0.00	29.954 
14:55	45.5	45.5	45.5	63	33.6	3	10	112	0.00	29.954 
15:00	45.5	45.5	45.5	64	34.0	3	9	112	0.00	29.950 
15:05	45.5	43.7	45.5	63	33.6	4	10	112	0.00	29.950 
15:10	45.7	45.7	45.7	63	33.8	3	6	90	0.00	29.950 
15:15	45.8	45.8	45.8	63	33.9	3	9	90	0.00	29.939 
15:20	45.8	45.8	45.8	63	33.9	3	9	112	0.00	29.939 
15:25	45.8	45.8	45.8	62	33.5	3	9	90	0.00	29.939 
15:30	46.0	46.0	46.0	63	34.1	3	7	112	0.00	29.934 
15:35	46.4	44.7	46.4	62	34.1	4	13	112	0.00	29.934 
15:40	46.8	45.2	46.8	62	34.5	4	12	112	0.00	29.934 
15:45	47.3	45.8	47.3	62	34.9	4	10	112	0.00	29.936 
15:50	47.4	45.9	47.4	60	34.2	4	11	90	0.00	29.936 
15:55	47.6	47.6	47.6	61	34.8	3	8	112	0.00	29.936 
16:00	47.7	47.7	47.7	60	34.5	3	7	112	0.00	29.936 
16:05	47.9	47.9	47.9	61	35.1	3	11	112	0.00	29.936 
16:10	48.2	48.2	48.2	59	34.6	2	7	112	0.00	29.936 
16:15	48.6	48.6	48.6	59	34.9	2	6	112	0.00	29.941 
16:20	48.9	48.9	48.9	58	34.8	2	5	112	0.00	29.941 
16:25	49.1	49.1	49.1	57	34.5	2	6	135	0.00	29.941 
16:30	49.2	49.2	49.2	56	34.2	3	9	112	0.00	29.932 
16:35	49.2	49.2	49.2	56	34.2	3	9	90	0.00	29.932 
16:40	49.1	47.8	49.1	57	34.5	4	12	112	0.00	29.932 
16:45	49.1	49.1	49.1	58	35.0	3	9	135	0.00	29.923 
16:50	49.1	49.1	49.1	57	34.5	2	6	112	0.00	29.923 
16:55	49.2	49.2	49.2	57	34.6	2	6	90	0.00	29.923 
17:00	49.4	49.4	49.4	58	35.2	2	7	112	0.00	29.917 
17:05	49.1	49.1	49.1	57	34.5	2	6	112	0.00	29.917 
17:10	48.6	48.6	48.6	57	34.1	3	7	90	0.00	29.917 
17:15	48.6	48.6	48.6	58	34.5	2	6	90	0.00	29.898 
17:20	48.9	48.9	48.9	58	34.8	2	6	112	0.00	29.898 
17:25	49.1	47.8	49.1	58	35.0	4	8	112	0.00	29.898 
17:30	49.4	49.4	49.4	58	35.2	3	6	112	0.00	29.889 
17:35	49.4	48.2	49.4	58	35.2	4	11	90	0.00	29.889 
17:40	49.5	49.5	49.5	59	35.8	3	6	112	0.00	29.889 
17:45	49.6	49.6	49.6	59	35.9	3	7	90	0.00	29.888 
17:50	49.5	48.3	49.5	58	35.3	4	7	112	0.00	29.888 
17:55	49.4	49.4	49.4	59	35.7	3	9	112	0.00	29.888 
18:00	49.2	49.2	49.2	60	35.9	2	7	90	0.00	29.884 
18:05	49.2	49.2	49.2	61	36.3	2	4	90	0.00	29.884 
18:10	49.4	49.4	49.4	60	36.1	2	6	112	0.00	29.884 
18:15	49.6	48.4	49.6	60	36.3	4	8	90	0.00	29.869 
18:20	49.6	49.6	49.6	60	36.3	3	11	90	0.00	29.869 
18:25	49.5	49.5	49.5	60	36.2	3	8	90	0.00	29.869 
18:30	49.4	48.2	49.4	61	36.5	4	11	90	0.00	29.858 
18:35	49.2	49.2	49.2	62	36.7	3	7	112	0.00	29.858 
18:40	49.2	49.2	49.2	61	36.3	3	8	90	0.00	29.858 
18:45	49.2	47.9	49.2	61	36.3	4	7	112	0.00	29.855 
18:50	49.1	49.1	49.1	61	36.2	3	6	112	0.00	29.855 
18:55	48.9	48.9	48.9	61	36.0	2	4	112	0.00	29.855 
19:00	48.8	48.8	48.8	62	36.4	3	5	90	0.00	29.850 
19:05	48.5	48.5	48.5	63	36.5	3	7	112	0.00	29.850 
19:10	48.5	48.5	48.5	64	36.9	2	4	112	0.00	29.850 
19:15	48.2	48.2	48.2	64	36.6	2	5	112	0.00	29.851 
19:20	47.9	47.9	47.9	65	36.7	3	5	90	0.00	29.851 
19:25	47.6	47.6	47.6	65	36.4	2	5	112	0.00	29.851 
19:30	47.3	47.3	47.3	65	36.1	1	4	112	0.00	29.844 
19:35	47.0	47.0	47.0	66	36.2	2	3	112	0.00	29.844 
19:40	46.7	46.7	46.7	67	36.3	1	3	112	0.00	29.844 
19:45	46.2	46.2	46.2	68	36.2	1	5	112	0.00	29.847 
19:50	45.8	45.8	45.8	69	36.2	1	3	112	0.00	29.847 
19:55	45.5	45.5	45.5	69	35.9	2	4	112	0.00	29.847 
20:00	45.2	45.2	45.2	70	36.0	2	4	112	0.00	29.843 
20:05	44.8	44.8	44.8	71	36.0	1	4	112	0.00	29.843 
20:10	44.3	44.3	44.3	72	35.9	1	3	112	0.00	29.843 
20:15	43.8	43.8	43.8	73	35.7	0	0	---	0.00	29.842 
20:20	43.2	43.2	43.2	75	35.8	1	3	112	0.00	29.842 
20:25	42.8	42.8	42.8	76	35.8	1	3	112	0.00	29.842 
20:30	42.5	42.5	42.5	77	35.8	2	5	112	0.00	29.843 
20:35	42.3	42.3	42.3	77	35.6	1	3	112	0.00	29.843 
20:40	42.1	42.1	42.1	77	35.4	1	4	112	0.00	29.843 
20:45	41.9	41.9	41.9	77	35.2	2	5	112	0.00	29.839 
20:50	41.9	41.9	41.9	77	35.2	3	5	90	0.00	29.839 
20:55	41.9	41.9	41.9	77	35.2	3	5	90	0.00	29.839 
21:00	41.9	41.9	41.9	77	35.2	3	6	90	0.00	29.832 
21:05	41.9	41.9	41.9	77	35.2	3	6	90	0.00	29.832 
21:10	41.9	41.9	41.9	77	35.2	2	5	90	0.00	29.832 
21:15	41.9	41.9	41.9	77	35.2	2	3	90	0.00	29.826 
21:20	41.9	41.9	41.9	77	35.2	1	3	90	0.00	29.826 
21:25	41.9	41.9	41.9	77	35.2	3	5	90	0.00	29.826 
21:30	41.9	41.9	41.9	77	35.2	2	6	112	0.00	29.823 
21:35	41.6	41.6	41.6	77	34.9	1	3	135	0.00	29.823 
21:40	41.3	41.3	41.3	77	34.6	2	5	90	0.00	29.823 
21:45	41.1	41.1	41.1	78	34.8	2	4	90	0.00	29.815 
21:50	40.8	40.8	40.8	78	34.5	1	4	90	0.00	29.815 
21:55	40.6	40.6	40.6	78	34.3	1	4	90	0.00	29.815 
22:00	40.6	40.6	40.6	79	34.6	2	4	90	0.00	29.810 
22:05	40.5	40.5	40.5	78	34.2	3	7	90	0.00	29.810 
22:10	40.3	40.3	40.3	79	34.3	3	9	90	0.00	29.810 
22:15	40.2	40.2	40.2	79	34.2	3	5	90	0.00	29.792 
22:20	40.1	40.1	40.1	79	34.1	3	5	90	0.00	29.792 
22:25	40.1	40.1	40.1	79	34.1	3	5	90	0.00	29.792 
22:30	40.1	40.1	40.1	79	34.1	3	5	90	0.00	29.789 
22:35	39.9	39.9	39.9	79	33.9	3	7	90	0.00	29.789 
22:40	39.6	39.6	39.6	80	33.9	2	5	90	0.00	29.789 
22:45	39.2	39.2	39.2	80	33.6	1	4	90	0.00	29.805 
22:50	38.8	38.8	38.8	80	33.2	0	1	90	0.00	29.805 
22:55	38.0	38.0	38.0	80	32.4	0	1	90	0.00	29.805 
23:00	37.5	37.5	37.5	81	32.2	0	1	90	0.00	29.811 
23:05	37.0	37.0	37.0	82	32.0	0	1	90	0.00	29.811 
23:10	36.6	36.6	36.6	83	31.9	0	0	---	0.00	29.811 
23:15	36.3	36.3	36.3	83	31.6	0	0	---	0.00	29.813 
23:20	36.0	36.0	36.0	84	31.6	0	1	90	0.00	29.813 
23:25	35.9	35.9	35.9	84	31.5	0	1	90	0.00	29.813 
23:30	35.8	35.8	35.8	84	31.4	0	0	---	0.00	29.823 
23:35	35.6	35.6	35.6	85	31.5	0	0	---	0.00	29.823 
23:40	35.5	35.5	35.5	85	31.4	0	0	---	0.00	29.823 
23:45	35.2	35.2	35.2	85	31.2	0	0	---	0.00	29.836 
23:50	35.0	35.0	35.0	85	31.0	0	0	---	0.00	29.836 
23:55	34.9	34.9	34.9	86	31.1	0	0	---	0.00	29.836 

CoCoRaHS
IN-AL-39
A2 Web Hosting
Creative Commons License
GoDaddy
search engine by freefind advanced

loaded 2018-11-17 05:44:16 • last modified 2010-11-18 10:43:29
Privacy PolicyDisclaimer
• wx.awcolley.com is powered by PmWiki v.2002016 •
• all content (unless otherwise noted) © 2018 A W Colley